createdAt,value
2024-04-19T00:01:59.181Z,4.13
2024-04-19T00:04:45.042Z,4.33
2024-04-19T00:07:33.844Z,4.00
2024-04-19T00:10:20.249Z,3.97
2024-04-19T00:13:09.028Z,4.40
2024-04-19T00:15:58.780Z,4.40
2024-04-19T00:18:48.092Z,4.17
2024-04-19T00:21:34.264Z,3.97
2024-04-19T00:24:23.132Z,4.23
2024-04-19T00:27:09.335Z,3.87
2024-04-19T00:29:58.008Z,4.13
2024-04-19T00:32:47.338Z,4.10
2024-04-19T00:35:40.754Z,4.37
2024-04-19T00:38:26.705Z,4.00
2024-04-19T00:41:15.468Z,4.23
2024-04-19T00:44:01.393Z,4.10
2024-04-19T00:46:50.524Z,4.03
2024-04-19T00:49:39.882Z,4.77
2024-04-19T00:52:28.771Z,4.87
2024-04-19T00:55:15.306Z,4.33
2024-04-19T00:58:04.218Z,4.57
2024-04-19T01:00:51.057Z,4.47
2024-04-19T01:03:40.153Z,4.43
2024-04-19T01:06:29.041Z,4.73
2024-04-19T01:09:18.361Z,4.40
2024-04-19T01:12:05.674Z,4.83
2024-04-19T01:14:54.562Z,5.57
2024-04-19T01:17:40.917Z,4.50
2024-04-19T01:20:29.901Z,4.43
2024-04-19T01:23:20.964Z,4.50
2024-04-19T01:26:12.507Z,3.97
2024-04-19T01:28:58.666Z,4.40
2024-04-19T01:31:47.182Z,4.53
2024-04-19T01:34:36.051Z,4.87
2024-04-19T01:37:22.418Z,4.83
2024-04-19T01:40:12.181Z,4.20
2024-04-19T01:43:00.878Z,4.57
2024-04-19T01:45:49.434Z,4.90
2024-04-19T01:48:35.628Z,5.13
2024-04-19T01:51:24.619Z,6.07
2024-04-19T01:54:10.880Z,4.40
2024-04-19T01:57:01.410Z,4.43
2024-04-19T01:59:50.292Z,4.90
2024-04-19T02:02:39.183Z,5.13
2024-04-19T02:05:25.178Z,5.57
2024-04-19T02:08:13.831Z,4.57
2024-04-19T02:11:01.571Z,5.20
2024-04-19T02:13:50.444Z,6.17
2024-04-19T02:16:39.261Z,5.80
2024-04-19T02:19:30.534Z,5.90
2024-04-19T02:22:16.698Z,6.23
2024-04-19T02:25:05.510Z,5.60
2024-04-19T02:28:09.963Z,5.67
2024-04-19T02:31:04.157Z,5.63
2024-04-19T02:33:55.732Z,5.37
2024-04-19T02:36:44.882Z,5.13
2024-04-19T02:39:33.788Z,5.67
2024-04-19T02:42:22.568Z,5.87
2024-04-19T02:45:11.728Z,5.80
2024-04-19T02:48:00.718Z,6.53
2024-04-19T02:50:52.313Z,5.57
2024-04-19T02:53:42.078Z,5.77
2024-04-19T02:56:30.718Z,6.40
2024-04-19T02:59:19.510Z,5.87
2024-04-19T03:02:08.505Z,5.90
2024-04-19T03:04:57.194Z,5.27
2024-04-19T03:07:48.208Z,5.37
2024-04-19T03:10:41.569Z,5.77
2024-04-19T03:13:30.470Z,4.73
2024-04-19T03:16:19.509Z,5.33
2024-04-19T03:19:08.366Z,4.73
2024-04-19T03:21:57.525Z,5.77
2024-04-19T03:24:49.148Z,6.63
2024-04-19T03:27:37.677Z,5.00
2024-04-19T03:30:30.838Z,5.43
2024-04-19T03:33:19.822Z,5.93
2024-04-19T03:36:09.619Z,5.53
2024-04-19T03:38:58.262Z,4.93
2024-04-19T03:41:52.413Z,5.23
2024-04-19T03:44:57.110Z,5.53
2024-04-19T03:47:45.696Z,5.33
2024-04-19T03:50:34.492Z,5.07
2024-04-19T03:53:23.255Z,5.00
2024-04-19T03:56:11.841Z,5.27
2024-04-19T03:59:03.450Z,4.37
2024-04-19T04:01:52.287Z,4.63
2024-04-19T04:04:40.630Z,4.83
2024-04-19T04:07:29.269Z,4.77
2024-04-19T04:10:17.959Z,5.13
2024-04-19T04:13:07.089Z,5.10
2024-04-19T04:15:58.734Z,5.07
2024-04-19T04:18:47.603Z,5.43
2024-04-19T04:21:36.284Z,6.10
2024-04-19T04:24:25.124Z,5.40
2024-04-19T04:27:14.116Z,4.87
2024-04-19T04:30:02.756Z,4.70
2024-04-19T04:32:54.231Z,4.83
2024-04-19T04:35:43.029Z,5.17
2024-04-19T04:38:31.580Z,4.47
2024-04-19T04:41:20.435Z,5.53
2024-04-19T04:44:09.275Z,4.60
2024-04-19T04:46:58.235Z,4.93
2024-04-19T04:49:49.924Z,5.23
2024-04-19T04:52:38.775Z,5.67
2024-04-19T04:55:27.347Z,4.90
2024-04-19T04:58:15.822Z,5.27
2024-04-19T05:01:04.797Z,4.40
2024-04-19T05:03:53.431Z,5.23
2024-04-19T05:06:45.083Z,4.67
2024-04-19T05:09:33.990Z,4.90
2024-04-19T05:12:22.446Z,5.07
2024-04-19T05:15:11.512Z,5.67
2024-04-19T05:18:00.601Z,4.73
2024-04-19T05:20:50.230Z,5.13
2024-04-19T05:23:41.775Z,5.33
2024-04-19T05:26:30.707Z,4.70
2024-04-19T05:29:19.697Z,4.90
2024-04-19T05:32:09.036Z,5.27
2024-04-19T05:34:57.912Z,4.03
2024-04-19T05:37:46.838Z,4.70
2024-04-19T05:40:38.414Z,4.70
2024-04-19T05:43:27.101Z,4.43
2024-04-19T05:46:16.002Z,4.17
2024-04-19T05:49:04.944Z,4.97
2024-04-19T05:51:53.636Z,3.83
2024-04-19T05:54:42.955Z,4.80
2024-04-19T05:57:34.376Z,4.53
2024-04-19T06:00:23.827Z,4.70
2024-04-19T06:03:12.675Z,4.60
2024-04-19T06:06:01.756Z,4.30
2024-04-19T06:08:52.531Z,4.93
2024-04-19T06:11:41.252Z,4.07
2024-04-19T06:14:33.075Z,5.43
2024-04-19T06:17:21.633Z,4.53
2024-04-19T06:20:11.028Z,4.23
2024-04-19T06:22:59.904Z,4.03
2024-04-19T06:25:48.519Z,5.00
2024-04-19T06:28:39.452Z,4.40
2024-04-19T06:31:31.034Z,4.27
2024-04-19T06:34:19.583Z,4.33
2024-04-19T06:37:08.723Z,4.87
2024-04-19T06:40:05.262Z,4.80
2024-04-19T06:42:56.183Z,4.10
2024-04-19T06:45:45.135Z,4.27
2024-04-19T06:48:36.853Z,3.77
2024-04-19T06:51:25.759Z,4.80
2024-04-19T06:54:14.685Z,4.63
2024-04-19T06:57:03.131Z,4.67
2024-04-19T06:59:54.692Z,4.50
2024-04-19T07:02:51.316Z,4.20
2024-04-19T07:05:43.745Z,4.57
2024-04-19T07:08:32.435Z,5.63
2024-04-19T07:11:21.274Z,4.40
2024-04-19T07:14:10.261Z,3.97
2024-04-19T07:16:59.029Z,4.80
2024-04-19T07:19:47.816Z,4.03
2024-04-19T07:22:40.096Z,4.10
2024-04-19T07:25:29.069Z,4.43
2024-04-19T07:28:17.887Z,5.00
2024-04-19T07:31:06.906Z,4.70
2024-04-19T07:33:55.938Z,4.13
2024-04-19T07:36:44.778Z,4.17
2024-04-19T07:39:36.533Z,4.57
2024-04-19T07:42:25.310Z,3.93
2024-04-19T07:45:14.894Z,3.37
2024-04-19T07:48:03.822Z,4.10
2024-04-19T07:50:52.476Z,3.77
2024-04-19T07:53:41.364Z,4.37
2024-04-19T07:56:35.226Z,4.47
2024-04-19T07:59:23.787Z,4.27
2024-04-19T08:02:12.758Z,4.97
2024-04-19T08:05:01.299Z,4.60
2024-04-19T08:07:50.206Z,4.53
2024-04-19T08:10:39.012Z,4.63
2024-04-19T08:13:30.645Z,5.67
2024-04-19T08:16:19.341Z,5.47
2024-04-19T08:19:08.718Z,5.90
2024-04-19T08:21:57.339Z,5.63
2024-04-19T08:24:46.265Z,4.43
2024-04-19T08:27:34.904Z,6.23
2024-04-19T08:30:26.346Z,4.67
2024-04-19T08:33:15.151Z,5.03
2024-04-19T08:36:04.030Z,5.10
2024-04-19T08:38:52.942Z,5.30
2024-04-19T08:41:41.915Z,4.63
2024-04-19T08:44:31.996Z,5.40
2024-04-19T08:47:23.698Z,5.30
2024-04-19T08:50:13.608Z,6.13
2024-04-19T08:53:15.382Z,5.03
2024-04-19T08:56:08.113Z,4.30
2024-04-19T08:58:58.003Z,4.83
2024-04-19T09:01:46.903Z,4.30
2024-04-19T09:04:38.052Z,4.00
2024-04-19T09:07:26.607Z,4.23
2024-04-19T09:10:16.266Z,4.10
2024-04-19T09:13:05.022Z,4.53
2024-04-19T09:15:57.034Z,4.33
2024-04-19T09:18:52.226Z,3.57
2024-04-19T09:21:43.759Z,3.57
2024-04-19T09:24:32.750Z,4.40
2024-04-19T09:27:22.912Z,3.97
2024-04-19T09:30:12.738Z,3.57
2024-04-19T09:33:01.861Z,3.40
2024-04-19T09:35:53.252Z,3.00
2024-04-19T09:38:44.738Z,3.30
2024-04-19T09:41:33.957Z,3.80
2024-04-19T09:44:26.688Z,3.22
2024-04-19T09:47:16.627Z,3.23
2024-04-19T09:50:06.800Z,3.10
2024-04-19T09:53:00.530Z,3.40
2024-04-19T09:55:59.115Z,3.53
2024-04-19T09:58:49.419Z,3.57
2024-04-19T10:01:39.987Z,3.30
2024-04-19T10:04:30.801Z,2.70
2024-04-19T10:07:21.569Z,3.30
2024-04-19T10:10:10.834Z,3.47
2024-04-19T10:13:02.450Z,3.13
2024-04-19T10:15:51.788Z,3.13
2024-04-19T10:18:41.152Z,3.93
2024-04-19T10:21:30.593Z,2.90
2024-04-19T10:24:21.278Z,3.20
2024-04-19T10:27:10.333Z,2.47
2024-04-19T10:30:01.602Z,2.73
2024-04-19T10:32:55.294Z,2.77
2024-04-19T10:35:45.968Z,2.57
2024-04-19T10:38:34.805Z,2.93
2024-04-19T10:41:23.714Z,3.00
2024-04-19T10:44:17.083Z,3.30
2024-04-19T10:47:09.539Z,3.00
2024-04-19T10:49:58.360Z,3.20
2024-04-19T10:52:46.997Z,3.10
2024-04-19T10:55:35.587Z,2.83
2024-04-19T10:58:24.353Z,3.20
2024-04-19T11:01:13.465Z,2.90
2024-04-19T11:04:04.911Z,2.60
2024-04-19T11:06:53.624Z,2.97
2024-04-19T11:09:42.302Z,2.47
2024-04-19T11:12:31.364Z,2.60
2024-04-19T11:15:21.738Z,2.60
2024-04-19T11:18:10.656Z,2.50
2024-04-19T11:21:08.352Z,2.13
2024-04-19T11:24:00.724Z,2.73
2024-04-19T11:26:49.359Z,2.73
2024-04-19T11:29:37.953Z,3.00
2024-04-19T11:32:27.451Z,3.00
2024-04-19T11:35:16.140Z,2.60
2024-04-19T11:38:07.986Z,2.53
2024-04-19T11:40:57.803Z,2.50
2024-04-19T11:43:46.765Z,3.00
2024-04-19T11:46:35.695Z,3.00
2024-04-19T11:49:24.321Z,2.30
2024-04-19T11:52:13.142Z,2.47
2024-04-19T11:55:05.622Z,2.63
2024-04-19T11:57:56.970Z,2.90
2024-04-19T12:00:46.587Z,2.83
2024-04-19T12:03:36.988Z,2.33
2024-04-19T12:06:26.170Z,2.60
2024-04-19T12:09:17.952Z,3.03
2024-04-19T12:15:44.827Z,2.13
2024-04-19T12:18:15.158Z,2.77
2024-04-19T12:21:04.679Z,2.33
2024-04-19T12:23:54.613Z,2.30
2024-04-19T12:26:44.700Z,2.10
2024-04-19T12:29:36.099Z,2.30
2024-04-19T12:32:24.594Z,2.23
2024-04-19T12:35:14.123Z,1.83
2024-04-19T12:38:02.963Z,2.03
2024-04-19T12:40:52.199Z,1.73
2024-04-19T12:43:41.320Z,1.73
2024-04-19T12:46:32.720Z,1.80
2024-04-19T12:49:22.641Z,1.70
2024-04-19T12:52:11.469Z,1.53
2024-04-19T12:55:00.336Z,1.30
2024-04-19T12:57:49.366Z,1.47
2024-04-19T13:00:38.240Z,1.60
2024-04-19T13:03:29.728Z,1.77
2024-04-19T13:06:18.921Z,1.50
2024-04-19T13:09:08.634Z,1.73
2024-04-19T13:11:57.251Z,2.00
2024-04-19T13:14:45.840Z,2.10
2024-04-19T13:17:34.629Z,1.70
2024-04-19T13:20:26.139Z,1.50
2024-04-19T13:23:14.650Z,1.60
2024-04-19T13:26:03.890Z,1.50
2024-04-19T13:28:55.981Z,1.73
2024-04-19T13:31:45.980Z,1.77
2024-04-19T13:34:34.804Z,1.80
2024-04-19T13:37:27.525Z,1.60
2024-04-19T13:40:16.338Z,2.00
2024-04-19T13:43:05.214Z,2.07
2024-04-19T13:45:56.302Z,1.80
2024-04-19T13:48:45.189Z,2.10
2024-04-19T13:51:33.658Z,1.90
2024-04-19T13:54:25.139Z,1.60
2024-04-19T13:57:14.249Z,1.60
2024-04-19T14:00:06.322Z,1.70
2024-04-19T14:02:56.919Z,1.70
2024-04-19T14:05:45.839Z,2.10
2024-04-19T14:08:34.437Z,1.70
2024-04-19T14:11:26.878Z,1.53
2024-04-19T14:14:15.327Z,1.80
2024-04-19T14:17:03.979Z,1.60
2024-04-19T14:19:54.456Z,1.80
2024-04-19T14:22:43.300Z,1.20
2024-04-19T14:25:32.129Z,1.50
2024-04-19T14:28:23.221Z,1.40
2024-04-19T14:31:11.743Z,1.30
2024-04-19T14:34:00.551Z,1.67
2024-04-19T14:36:49.514Z,1.60
2024-04-19T14:39:38.413Z,1.30
2024-04-19T14:42:28.855Z,0.93
2024-04-19T14:45:20.624Z,1.20
2024-04-19T14:48:10.139Z,1.20
2024-04-19T14:50:58.810Z,1.30
2024-04-19T14:53:47.802Z,1.20
2024-04-19T14:56:37.204Z,1.30
2024-04-19T14:59:26.297Z,1.20
2024-04-19T15:02:17.990Z,1.20
2024-04-19T15:05:07.268Z,1.03
2024-04-19T15:07:55.847Z,1.00
2024-04-19T15:10:45.078Z,1.10
2024-04-19T15:13:36.543Z,0.87
2024-04-19T15:16:25.150Z,1.20
2024-04-19T15:19:17.927Z,1.00
2024-04-19T15:22:06.835Z,1.20
2024-04-19T15:24:55.906Z,1.13
2024-04-19T15:27:44.703Z,1.40
2024-04-19T15:30:33.123Z,1.00
2024-04-19T15:33:22.106Z,1.00
2024-04-19T15:36:13.738Z,1.43
2024-04-19T15:39:04.976Z,1.20
2024-04-19T15:41:57.096Z,1.60
2024-04-19T15:44:49.405Z,1.10
2024-04-19T15:47:38.214Z,1.10
2024-04-19T15:50:27.247Z,1.13
2024-04-19T15:53:19.827Z,1.03
2024-04-19T15:56:09.577Z,0.83
2024-04-19T15:58:58.418Z,0.60
2024-04-19T16:01:47.151Z,0.87
2024-04-19T16:04:35.812Z,1.10
2024-04-19T16:07:24.545Z,0.77
2024-04-19T16:10:16.168Z,0.80
2024-04-19T16:13:05.144Z,0.80
2024-04-19T16:16:04.627Z,0.73
2024-04-19T16:18:53.370Z,0.97
2024-04-19T16:21:42.505Z,0.70
2024-04-19T16:24:31.164Z,0.93
2024-04-19T16:27:22.838Z,0.93
2024-04-19T16:30:12.589Z,0.93
2024-04-19T16:33:01.495Z,0.90
2024-04-19T16:36:00.248Z,0.90
2024-04-19T16:38:54.191Z,0.90
2024-04-19T16:41:44.443Z,0.73
2024-04-19T16:44:35.984Z,0.97
2024-04-19T16:47:26.545Z,0.73
2024-04-19T16:50:15.233Z,0.70
2024-04-19T16:53:03.939Z,1.10
2024-04-19T16:55:52.859Z,1.10
2024-04-19T16:58:41.513Z,1.13
2024-04-19T17:01:33.365Z,1.13
2024-04-19T17:04:22.035Z,0.97
2024-04-19T17:07:10.617Z,1.03
2024-04-19T17:09:59.945Z,1.03
2024-04-19T17:12:48.849Z,0.83
2024-04-19T17:15:38.186Z,1.20
2024-04-19T17:18:29.466Z,1.00
2024-04-19T17:21:19.018Z,0.80
2024-04-19T17:24:08.051Z,0.60
2024-04-19T17:26:56.618Z,0.77
2024-04-19T17:29:45.564Z,0.67
2024-04-19T17:32:34.417Z,0.60
2024-04-19T17:35:26.286Z,0.70
2024-04-19T17:38:15.358Z,0.50
2024-04-19T17:41:06.467Z,0.80
2024-04-19T17:43:55.313Z,0.60
2024-04-19T17:46:44.207Z,0.70
2024-04-19T17:49:32.596Z,0.60
2024-04-19T17:52:24.175Z,0.60
2024-04-19T17:55:12.869Z,0.50
2024-04-19T17:58:01.592Z,0.70
2024-04-19T18:00:50.924Z,0.50
2024-04-19T18:03:39.491Z,0.70
2024-04-19T18:06:28.450Z,0.70
2024-04-19T18:09:20.244Z,0.70
2024-04-19T18:12:09.931Z,0.80
2024-04-19T18:14:58.993Z,0.70
2024-04-19T18:17:51.009Z,0.60
2024-04-19T18:20:44.934Z,0.90
2024-04-19T18:23:33.603Z,0.70
2024-04-19T18:26:24.765Z,0.83
2024-04-19T18:29:13.695Z,0.67
2024-04-19T18:32:02.685Z,0.90
2024-04-19T18:34:52.759Z,0.80
2024-04-19T18:37:41.566Z,0.70
2024-04-19T18:40:30.259Z,0.63
2024-04-19T18:43:21.809Z,0.83
2024-04-19T18:46:10.407Z,0.77
2024-04-19T18:48:59.250Z,0.60
2024-04-19T18:51:48.118Z,0.90
2024-04-19T18:54:36.905Z,0.70
2024-04-19T18:57:25.631Z,0.97
2024-04-19T19:00:18.678Z,0.73
2024-04-19T19:03:08.171Z,0.83
2024-04-19T19:05:57.631Z,0.90
2024-04-19T19:08:46.500Z,1.10
2024-04-19T19:11:35.338Z,0.90
2024-04-19T19:14:24.064Z,0.70
2024-04-19T19:17:15.938Z,0.77
2024-04-19T19:20:09.180Z,0.90
2024-04-19T19:22:59.118Z,0.73
2024-04-19T19:25:48.578Z,0.73
2024-04-19T19:28:38.541Z,0.90
2024-04-19T19:31:28.829Z,1.20
2024-04-19T19:34:20.098Z,1.03
2024-04-19T19:37:08.805Z,0.70
2024-04-19T19:40:00.666Z,1.00
2024-04-19T19:42:50.998Z,0.77
2024-04-19T19:45:39.737Z,1.23
2024-04-19T19:48:34.077Z,1.00
2024-04-19T19:51:25.898Z,1.00
2024-04-19T19:54:14.524Z,0.87
2024-04-19T19:57:03.460Z,1.10
2024-04-19T20:00:07.851Z,1.07
2024-04-19T20:03:12.420Z,1.10
2024-04-19T20:06:03.243Z,1.30
2024-04-19T20:08:55.467Z,1.10
2024-04-19T20:11:47.159Z,1.10
2024-04-19T20:14:35.566Z,1.30
2024-04-19T20:17:24.617Z,1.40
2024-04-19T20:20:13.727Z,1.30
2024-04-19T20:23:02.412Z,1.43
2024-04-19T20:25:53.862Z,1.57
2024-04-19T20:28:42.907Z,1.80
2024-04-19T20:31:31.609Z,1.77
2024-04-19T20:34:21.071Z,1.87
2024-04-19T20:37:10.530Z,1.50
2024-04-19T20:39:59.259Z,1.53
2024-04-19T20:42:56.309Z,1.80
2024-04-19T20:45:49.452Z,1.43
2024-04-19T20:48:40.483Z,1.60
2024-04-19T20:51:29.873Z,1.60
2024-04-19T20:54:18.856Z,2.07
2024-04-19T20:57:07.650Z,1.60
2024-04-19T20:59:59.163Z,1.30
2024-04-19T21:02:48.256Z,1.50
2024-04-19T21:05:37.253Z,1.20
2024-04-19T21:08:25.952Z,1.40
2024-04-19T21:11:14.579Z,1.60
2024-04-19T21:14:03.036Z,1.47
2024-04-19T21:16:54.574Z,1.70
2024-04-19T21:19:43.321Z,1.40
2024-04-19T21:22:32.180Z,1.70
2024-04-19T21:25:21.292Z,1.80
2024-04-19T21:28:10.687Z,1.70
2024-04-19T21:31:04.543Z,1.90
2024-04-19T21:33:56.335Z,2.40
2024-04-19T21:36:48.015Z,1.90
2024-04-19T21:39:37.259Z,1.90
2024-04-19T21:42:26.224Z,1.80
2024-04-19T21:45:14.690Z,1.73
2024-04-19T21:48:03.574Z,2.03
2024-04-19T21:50:55.088Z,1.77
2024-04-19T21:53:44.100Z,2.10
2024-04-19T21:56:32.717Z,1.93
2024-04-19T21:59:21.123Z,1.50
2024-04-19T22:02:10.003Z,1.50
2024-04-19T22:04:58.831Z,1.70
2024-04-19T22:07:50.353Z,1.63
2024-04-19T22:10:40.901Z,1.70
2024-04-19T22:13:29.894Z,1.57
2024-04-19T22:16:18.819Z,1.00
2024-04-19T22:19:07.344Z,1.10
2024-04-19T22:21:56.224Z,0.80
2024-04-19T22:24:50.445Z,0.60
2024-04-19T22:27:39.010Z,0.67
2024-04-19T22:30:28.024Z,0.70
2024-04-19T22:33:16.966Z,0.90
2024-04-19T22:36:09.539Z,1.20
2024-04-19T22:38:58.557Z,1.10
2024-04-19T22:41:50.103Z,1.37
2024-04-19T22:44:38.846Z,1.60
2024-04-19T22:47:29.732Z,2.00
2024-04-19T22:50:18.732Z,1.80
2024-04-19T22:53:08.838Z,2.17
2024-04-19T22:55:58.240Z,1.63
2024-04-19T22:58:49.849Z,2.10
2024-04-19T23:01:39.008Z,2.10
2024-04-19T23:04:27.622Z,1.70
2024-04-19T23:07:16.138Z,1.20
2024-04-19T23:10:04.883Z,1.00
2024-04-19T23:12:53.775Z,1.20
2024-04-19T23:15:45.447Z,1.10
2024-04-19T23:18:34.432Z,1.10
2024-04-19T23:21:23.979Z,1.40
2024-04-19T23:24:12.511Z,1.17
2024-04-19T23:27:01.308Z,1.47
2024-04-19T23:29:50.181Z,1.70
2024-04-19T23:32:41.960Z,2.03
2024-04-19T23:35:30.552Z,1.90
2024-04-19T23:38:19.372Z,2.00
2024-04-19T23:41:08.209Z,2.30
2024-04-19T23:43:56.991Z,2.00
2024-04-19T23:46:45.955Z,2.23
2024-04-19T23:49:37.595Z,1.83
2024-04-19T23:52:29.319Z,2.43
2024-04-19T23:55:18.092Z,2.20
2024-04-19T23:58:07.132Z,1.70
